sensor_id;sensor_type;location;lat;lon;timestamp;temperature;humidity
44817;DHT22;30529;53.570;9.964;2023-03-20T00:01:11;10.60;99.90
44817;DHT22;30529;53.570;9.964;2023-03-20T00:03:38;10.60;99.90
44817;DHT22;30529;53.570;9.964;2023-03-20T00:06:04;10.60;99.90
44817;DHT22;30529;53.570;9.964;2023-03-20T00:08:30;10.60;99.90
44817;DHT22;30529;53.570;9.964;2023-03-20T00:10:57;10.60;99.90
44817;DHT22;30529;53.570;9.964;2023-03-20T00:13:24;10.60;99.90
44817;DHT22;30529;53.570;9.964;2023-03-20T00:15:53;10.60;99.90
44817;DHT22;30529;53.570;9.964;2023-03-20T00:18:21;10.50;99.90
44817;DHT22;30529;53.570;9.964;2023-03-20T00:20:49;10.50;99.90
44817;DHT22;30529;53.570;9.964;2023-03-20T00:23:16;10.40;99.90
44817;DHT22;30529;53.570;9.964;2023-03-20T00:25:45;10.40;99.90
44817;DHT22;30529;53.570;9.964;2023-03-20T00:28:36;10.30;99.90
44817;DHT22;30529;53.570;9.964;2023-03-20T00:31:14;10.30;99.90
44817;DHT22;30529;53.570;9.964;2023-03-20T00:33:41;10.20;99.90
44817;DHT22;30529;53.570;9.964;2023-03-20T00:36:08;10.20;99.90
44817;DHT22;30529;53.570;9.964;2023-03-20T00:38:34;10.30;99.90
44817;DHT22;30529;53.570;9.964;2023-03-20T00:41:00;10.30;99.90
44817;DHT22;30529;53.570;9.964;2023-03-20T00:43:26;10.30;99.90
44817;DHT22;30529;53.570;9.964;2023-03-20T00:45:52;10.30;99.90
44817;DHT22;30529;53.570;9.964;2023-03-20T00:48:18;10.40;99.90
44817;DHT22;30529;53.570;9.964;2023-03-20T00:50:44;10.40;99.90
44817;DHT22;30529;53.570;9.964;2023-03-20T00:53:10;10.40;99.90
44817;DHT22;30529;53.570;9.964;2023-03-20T00:55:38;10.30;99.90
44817;DHT22;30529;53.570;9.964;2023-03-20T00:58:05;10.30;99.90
44817;DHT22;30529;53.570;9.964;2023-03-20T01:03:01;10.40;99.90
44817;DHT22;30529;53.570;9.964;2023-03-20T01:05:29;10.40;99.90
44817;DHT22;30529;53.570;9.964;2023-03-20T01:07:55;10.40;99.90
44817;DHT22;30529;53.570;9.964;2023-03-20T01:10:31;10.40;99.90
44817;DHT22;30529;53.570;9.964;2023-03-20T01:12:59;10.40;99.90
44817;DHT22;30529;53.570;9.964;2023-03-20T01:15:32;10.40;99.90
44817;DHT22;30529;53.570;9.964;2023-03-20T01:17:58;10.50;99.90
44817;DHT22;30529;53.570;9.964;2023-03-20T01:20:26;10.40;99.90
44817;DHT22;30529;53.570;9.964;2023-03-20T01:22:53;10.40;99.90
44817;DHT22;30529;53.570;9.964;2023-03-20T01:25:19;10.40;99.90
44817;DHT22;30529;53.570;9.964;2023-03-20T01:27:49;10.40;99.90
44817;DHT22;30529;53.570;9.964;2023-03-20T01:30:25;10.40;99.90
44817;DHT22;30529;53.570;9.964;2023-03-20T01:32:52;10.40;99.90
44817;DHT22;30529;53.570;9.964;2023-03-20T01:35:21;10.40;99.90
44817;DHT22;30529;53.570;9.964;2023-03-20T01:37:48;10.40;99.90
44817;DHT22;30529;53.570;9.964;2023-03-20T01:42:55;10.40;99.90
44817;DHT22;30529;53.570;9.964;2023-03-20T01:45:25;10.40;99.90
44817;DHT22;30529;53.570;9.964;2023-03-20T01:47:53;10.40;99.90
44817;DHT22;30529;53.570;9.964;2023-03-20T01:50:27;10.40;99.90
44817;DHT22;30529;53.570;9.964;2023-03-20T01:53:15;10.40;99.90
44817;DHT22;30529;53.570;9.964;2023-03-20T01:55:42;10.40;99.90
44817;DHT22;30529;53.570;9.964;2023-03-20T01:58:15;10.40;99.90
44817;DHT22;30529;53.570;9.964;2023-03-20T02:00:42;10.30;99.90
44817;DHT22;30529;53.570;9.964;2023-03-20T02:03:08;10.30;99.90
44817;DHT22;30529;53.570;9.964;2023-03-20T02:05:35;10.30;99.90
44817;DHT22;30529;53.570;9.964;2023-03-20T02:08:11;10.30;99.90
44817;DHT22;30529;53.570;9.964;2023-03-20T02:10:42;10.30;99.90
44817;DHT22;30529;53.570;9.964;2023-03-20T02:13:10;10.30;99.90
44817;DHT22;30529;53.570;9.964;2023-03-20T02:15:56;10.20;99.90
44817;DHT22;30529;53.570;9.964;2023-03-20T02:18:22;10.30;99.90
44817;DHT22;30529;53.570;9.964;2023-03-20T02:32:48;9.80;99.90
44817;DHT22;30529;53.570;9.964;2023-03-20T02:35:53;9.70;99.90
44817;DHT22;30529;53.570;9.964;2023-03-20T02:41:29;9.90;99.90
44817;DHT22;30529;53.570;9.964;2023-03-20T02:44:12;9.70;99.90
44817;DHT22;30529;53.570;9.964;2023-03-20T02:46:59;9.70;99.90
44817;DHT22;30529;53.570;9.964;2023-03-20T02:49:54;9.70;99.90
44817;DHT22;30529;53.570;9.964;2023-03-20T02:55:28;9.50;99.90
44817;DHT22;30529;53.570;9.964;2023-03-20T03:00:37;9.30;99.90
44817;DHT22;30529;53.570;9.964;2023-03-20T03:03:13;9.40;99.90
44817;DHT22;30529;53.570;9.964;2023-03-20T03:05:48;9.50;99.90
44817;DHT22;30529;53.570;9.964;2023-03-20T03:08:19;9.40;99.90
44817;DHT22;30529;53.570;9.964;2023-03-20T03:11:11;9.40;99.90
44817;DHT22;30529;53.570;9.964;2023-03-20T03:13:40;9.40;99.90
44817;DHT22;30529;53.570;9.964;2023-03-20T03:16:13;9.50;99.90
44817;DHT22;30529;53.570;9.964;2023-03-20T03:18:41;9.50;99.90
44817;DHT22;30529;53.570;9.964;2023-03-20T03:21:09;9.50;99.90
44817;DHT22;30529;53.570;9.964;2023-03-20T03:23:42;9.50;99.90
44817;DHT22;30529;53.570;9.964;2023-03-20T03:26:14;9.50;99.90
44817;DHT22;30529;53.570;9.964;2023-03-20T03:28:46;9.50;99.90
44817;DHT22;30529;53.570;9.964;2023-03-20T03:31:15;9.50;99.90
44817;DHT22;30529;53.570;9.964;2023-03-20T03:33:45;9.60;99.90
44817;DHT22;30529;53.570;9.964;2023-03-20T03:39:16;9.40;99.90
44817;DHT22;30529;53.570;9.964;2023-03-20T03:41:51;9.50;99.90
44817;DHT22;30529;53.570;9.964;2023-03-20T03:44:45;9.50;99.90
44817;DHT22;30529;53.570;9.964;2023-03-20T03:47:20;9.50;99.90
44817;DHT22;30529;53.570;9.964;2023-03-20T03:49:52;9.40;99.90
44817;DHT22;30529;53.570;9.964;2023-03-20T03:52:22;9.50;99.90
44817;DHT22;30529;53.570;9.964;2023-03-20T03:54:53;9.50;99.90
44817;DHT22;30529;53.570;9.964;2023-03-20T03:57:28;9.50;99.90
44817;DHT22;30529;53.570;9.964;2023-03-20T03:59:57;9.50;99.90
44817;DHT22;30529;53.570;9.964;2023-03-20T04:02:25;9.50;99.90
44817;DHT22;30529;53.570;9.964;2023-03-20T04:04:52;9.60;99.90
44817;DHT22;30529;53.570;9.964;2023-03-20T04:07:19;9.60;99.90
44817;DHT22;30529;53.570;9.964;2023-03-20T04:09:45;9.60;99.90
44817;DHT22;30529;53.570;9.964;2023-03-20T04:12:34;9.60;99.90
44817;DHT22;30529;53.570;9.964;2023-03-20T04:15:01;9.50;99.90
44817;DHT22;30529;53.570;9.964;2023-03-20T04:17:27;9.50;99.90
44817;DHT22;30529;53.570;9.964;2023-03-20T04:19:52;9.50;99.90
44817;DHT22;30529;53.570;9.964;2023-03-20T04:22:18;9.50;99.90
44817;DHT22;30529;53.570;9.964;2023-03-20T04:24:45;9.40;99.90
44817;DHT22;30529;53.570;9.964;2023-03-20T04:27:11;9.40;99.90
44817;DHT22;30529;53.570;9.964;2023-03-20T04:29:37;9.40;99.90
44817;DHT22;30529;53.570;9.964;2023-03-20T04:32:03;9.50;99.90
44817;DHT22;30529;53.570;9.964;2023-03-20T04:34:29;9.60;99.90
44817;DHT22;30529;53.570;9.964;2023-03-20T04:36:55;9.50;99.90
44817;DHT22;30529;53.570;9.964;2023-03-20T04:39:21;9.60;99.90
44817;DHT22;30529;53.570;9.964;2023-03-20T04:41:47;9.60;99.90
44817;DHT22;30529;53.570;9.964;2023-03-20T04:44:13;9.60;99.90
44817;DHT22;30529;53.570;9.964;2023-03-20T04:46:39;9.60;99.90
44817;DHT22;30529;53.570;9.964;2023-03-20T04:49:05;9.50;99.90
44817;DHT22;30529;53.570;9.964;2023-03-20T04:51:31;9.40;99.90
44817;DHT22;30529;53.570;9.964;2023-03-20T04:53:56;9.30;99.90
44817;DHT22;30529;53.570;9.964;2023-03-20T04:56:22;9.40;99.90
44817;DHT22;30529;53.570;9.964;2023-03-20T04:58:48;9.40;99.90
44817;DHT22;30529;53.570;9.964;2023-03-20T05:01:14;9.40;99.90
44817;DHT22;30529;53.570;9.964;2023-03-20T05:03:40;9.40;99.90
44817;DHT22;30529;53.570;9.964;2023-03-20T05:06:07;9.50;99.90
44817;DHT22;30529;53.570;9.964;2023-03-20T05:08:33;9.40;99.90
44817;DHT22;30529;53.570;9.964;2023-03-20T05:10:59;9.40;99.90
44817;DHT22;30529;53.570;9.964;2023-03-20T05:13:25;9.40;99.90
44817;DHT22;30529;53.570;9.964;2023-03-20T05:15:51;9.30;99.90
44817;DHT22;30529;53.570;9.964;2023-03-20T05:18:17;9.30;99.90
44817;DHT22;30529;53.570;9.964;2023-03-20T05:20:43;9.30;99.90
44817;DHT22;30529;53.570;9.964;2023-03-20T05:23:09;9.30;99.90
44817;DHT22;30529;53.570;9.964;2023-03-20T05:25:35;9.30;99.90
44817;DHT22;30529;53.570;9.964;2023-03-20T05:28:01;9.30;99.90
44817;DHT22;30529;53.570;9.964;2023-03-20T05:30:27;9.30;99.90
44817;DHT22;30529;53.570;9.964;2023-03-20T05:32:53;9.20;99.90
44817;DHT22;30529;53.570;9.964;2023-03-20T05:35:19;9.20;99.90
44817;DHT22;30529;53.570;9.964;2023-03-20T05:37:45;9.20;99.90
44817;DHT22;30529;53.570;9.964;2023-03-20T05:40:12;9.10;99.90
44817;DHT22;30529;53.570;9.964;2023-03-20T05:42:38;9.10;99.90
44817;DHT22;30529;53.570;9.964;2023-03-20T05:45:05;9.20;99.90
44817;DHT22;30529;53.570;9.964;2023-03-20T05:47:32;9.20;99.90
44817;DHT22;30529;53.570;9.964;2023-03-20T05:49:57;9.20;99.90
44817;DHT22;30529;53.570;9.964;2023-03-20T05:52:24;9.20;99.90
44817;DHT22;30529;53.570;9.964;2023-03-20T05:54:49;9.10;99.90
44817;DHT22;30529;53.570;9.964;2023-03-20T05:57:16;9.20;99.90
44817;DHT22;30529;53.570;9.964;2023-03-20T05:59:42;9.10;99.90
44817;DHT22;30529;53.570;9.964;2023-03-20T06:02:09;9.20;99.90
44817;DHT22;30529;53.570;9.964;2023-03-20T06:04:35;9.20;99.90
44817;DHT22;30529;53.570;9.964;2023-03-20T06:07:02;9.20;99.90
44817;DHT22;30529;53.570;9.964;2023-03-20T06:09:29;9.20;99.90
44817;DHT22;30529;53.570;9.964;2023-03-20T06:11:55;9.20;99.90
44817;DHT22;30529;53.570;9.964;2023-03-20T06:14:21;9.20;99.90
44817;DHT22;30529;53.570;9.964;2023-03-20T06:16:47;9.20;99.90
44817;DHT22;30529;53.570;9.964;2023-03-20T06:19:13;9.10;99.90
44817;DHT22;30529;53.570;9.964;2023-03-20T06:21:39;9.20;99.90
44817;DHT22;30529;53.570;9.964;2023-03-20T06:24:05;9.20;99.90
44817;DHT22;30529;53.570;9.964;2023-03-20T06:26:31;9.20;99.90
44817;DHT22;30529;53.570;9.964;2023-03-20T06:28:57;9.30;99.90
44817;DHT22;30529;53.570;9.964;2023-03-20T06:31:23;9.30;99.90
44817;DHT22;30529;53.570;9.964;2023-03-20T06:33:49;9.30;99.90
44817;DHT22;30529;53.570;9.964;2023-03-20T06:36:15;9.20;99.90
44817;DHT22;30529;53.570;9.964;2023-03-20T06:38:41;9.20;99.90
44817;DHT22;30529;53.570;9.964;2023-03-20T06:41:07;9.30;99.90
44817;DHT22;30529;53.570;9.964;2023-03-20T06:43:33;9.30;99.90
44817;DHT22;30529;53.570;9.964;2023-03-20T06:45:59;9.30;99.90
44817;DHT22;30529;53.570;9.964;2023-03-20T06:48:25;9.30;99.90
44817;DHT22;30529;53.570;9.964;2023-03-20T06:50:51;9.40;99.90
44817;DHT22;30529;53.570;9.964;2023-03-20T06:53:18;9.50;99.90
44817;DHT22;30529;53.570;9.964;2023-03-20T06:55:48;9.50;99.90
44817;DHT22;30529;53.570;9.964;2023-03-20T06:58:15;9.60;99.90
44817;DHT22;30529;53.570;9.964;2023-03-20T07:00:42;9.60;99.90
44817;DHT22;30529;53.570;9.964;2023-03-20T07:03:08;9.50;99.90
44817;DHT22;30529;53.570;9.964;2023-03-20T07:05:35;9.60;99.90
44817;DHT22;30529;53.570;9.964;2023-03-20T07:08:01;9.60;99.90
44817;DHT22;30529;53.570;9.964;2023-03-20T07:10:27;9.70;99.90
44817;DHT22;30529;53.570;9.964;2023-03-20T07:12:53;9.60;99.90
44817;DHT22;30529;53.570;9.964;2023-03-20T07:15:21;9.60;99.90
44817;DHT22;30529;53.570;9.964;2023-03-20T07:17:47;9.70;99.90
44817;DHT22;30529;53.570;9.964;2023-03-20T07:20:13;9.60;99.90
44817;DHT22;30529;53.570;9.964;2023-03-20T07:22:40;9.70;99.90
44817;DHT22;30529;53.570;9.964;2023-03-20T07:25:07;9.60;99.90
44817;DHT22;30529;53.570;9.964;2023-03-20T07:27:34;9.60;99.90
44817;DHT22;30529;53.570;9.964;2023-03-20T07:30:01;9.70;99.90
44817;DHT22;30529;53.570;9.964;2023-03-20T07:32:27;9.70;99.90
44817;DHT22;30529;53.570;9.964;2023-03-20T07:34:53;9.70;99.90
44817;DHT22;30529;53.570;9.964;2023-03-20T07:37:19;9.80;99.90
44817;DHT22;30529;53.570;9.964;2023-03-20T07:39:45;9.80;99.90
44817;DHT22;30529;53.570;9.964;2023-03-20T07:42:11;9.70;99.90
44817;DHT22;30529;53.570;9.964;2023-03-20T07:44:38;9.80;99.90
44817;DHT22;30529;53.570;9.964;2023-03-20T07:47:05;9.80;99.90
44817;DHT22;30529;53.570;9.964;2023-03-20T07:49:32;9.90;99.90
44817;DHT22;30529;53.570;9.964;2023-03-20T07:51:59;9.90;99.90
44817;DHT22;30529;53.570;9.964;2023-03-20T07:54:25;10.00;99.90
44817;DHT22;30529;53.570;9.964;2023-03-20T07:56:52;10.10;99.90
44817;DHT22;30529;53.570;9.964;2023-03-20T07:59:18;10.20;99.90
44817;DHT22;30529;53.570;9.964;2023-03-20T08:01:44;10.30;99.90
44817;DHT22;30529;53.570;9.964;2023-03-20T08:04:10;10.30;99.90
44817;DHT22;30529;53.570;9.964;2023-03-20T08:06:36;10.20;99.90
44817;DHT22;30529;53.570;9.964;2023-03-20T08:09:05;10.40;99.90
44817;DHT22;30529;53.570;9.964;2023-03-20T08:11:31;10.30;99.90
44817;DHT22;30529;53.570;9.964;2023-03-20T08:13:58;10.20;99.90
44817;DHT22;30529;53.570;9.964;2023-03-20T08:16:24;10.20;99.90
44817;DHT22;30529;53.570;9.964;2023-03-20T08:18:50;10.10;99.90
44817;DHT22;30529;53.570;9.964;2023-03-20T08:21:18;10.20;99.90
44817;DHT22;30529;53.570;9.964;2023-03-20T08:23:44;10.20;99.90
44817;DHT22;30529;53.570;9.964;2023-03-20T08:26:10;10.10;99.90
44817;DHT22;30529;53.570;9.964;2023-03-20T08:28:37;10.20;99.90
44817;DHT22;30529;53.570;9.964;2023-03-20T08:31:07;10.20;99.90
44817;DHT22;30529;53.570;9.964;2023-03-20T08:33:34;10.20;99.90
44817;DHT22;30529;53.570;9.964;2023-03-20T08:36:00;10.10;99.90
44817;DHT22;30529;53.570;9.964;2023-03-20T08:38:26;10.10;99.90
44817;DHT22;30529;53.570;9.964;2023-03-20T08:40:52;10.10;99.90
44817;DHT22;30529;53.570;9.964;2023-03-20T08:43:19;10.10;99.90
44817;DHT22;30529;53.570;9.964;2023-03-20T08:45:48;10.20;99.90
44817;DHT22;30529;53.570;9.964;2023-03-20T08:48:14;10.10;99.90
44817;DHT22;30529;53.570;9.964;2023-03-20T08:50:41;10.30;99.90
44817;DHT22;30529;53.570;9.964;2023-03-20T08:53:07;10.60;99.90
44817;DHT22;30529;53.570;9.964;2023-03-20T08:55:33;10.60;99.90
44817;DHT22;30529;53.570;9.964;2023-03-20T08:57:58;10.60;99.90
44817;DHT22;30529;53.570;9.964;2023-03-20T09:00:25;10.70;99.90
44817;DHT22;30529;53.570;9.964;2023-03-20T09:02:52;10.80;99.90
44817;DHT22;30529;53.570;9.964;2023-03-20T09:05:18;10.70;99.90
44817;DHT22;30529;53.570;9.964;2023-03-20T09:07:44;10.70;99.90
44817;DHT22;30529;53.570;9.964;2023-03-20T09:10:11;10.70;99.90
44817;DHT22;30529;53.570;9.964;2023-03-20T09:12:37;10.70;99.90
44817;DHT22;30529;53.570;9.964;2023-03-20T09:15:04;10.60;99.90
44817;DHT22;30529;53.570;9.964;2023-03-20T09:17:31;10.60;99.90
44817;DHT22;30529;53.570;9.964;2023-03-20T09:19:57;10.60;99.90
44817;DHT22;30529;53.570;9.964;2023-03-20T09:22:23;10.60;99.90
44817;DHT22;30529;53.570;9.964;2023-03-20T09:24:49;10.50;99.90
44817;DHT22;30529;53.570;9.964;2023-03-20T09:27:15;10.40;99.90
44817;DHT22;30529;53.570;9.964;2023-03-20T09:29:42;10.40;99.90
44817;DHT22;30529;53.570;9.964;2023-03-20T09:32:12;10.40;99.90
44817;DHT22;30529;53.570;9.964;2023-03-20T09:34:38;10.40;99.90
44817;DHT22;30529;53.570;9.964;2023-03-20T09:37:04;10.60;99.90
44817;DHT22;30529;53.570;9.964;2023-03-20T09:39:31;10.80;99.90
44817;DHT22;30529;53.570;9.964;2023-03-20T09:42:09;10.80;99.90
44817;DHT22;30529;53.570;9.964;2023-03-20T09:50:37;10.90;99.90
44817;DHT22;30529;53.570;9.964;2023-03-20T09:53:17;11.00;99.90
44817;DHT22;30529;53.570;9.964;2023-03-20T09:55:46;11.00;99.90
44817;DHT22;30529;53.570;9.964;2023-03-20T09:58:31;11.00;99.90
44817;DHT22;30529;53.570;9.964;2023-03-20T10:01:00;11.10;99.90
44817;DHT22;30529;53.570;9.964;2023-03-20T10:03:31;11.00;99.90
44817;DHT22;30529;53.570;9.964;2023-03-20T10:06:14;11.00;99.90
44817;DHT22;30529;53.570;9.964;2023-03-20T10:08:42;11.00;99.90
44817;DHT22;30529;53.570;9.964;2023-03-20T10:17:22;11.00;99.90
44817;DHT22;30529;53.570;9.964;2023-03-20T10:19:56;10.80;99.90
44817;DHT22;30529;53.570;9.964;2023-03-20T10:22:33;11.00;99.90
44817;DHT22;30529;53.570;9.964;2023-03-20T10:25:13;11.00;99.90
44817;DHT22;30529;53.570;9.964;2023-03-20T10:27:52;11.00;99.90
44817;DHT22;30529;53.570;9.964;2023-03-20T10:30:48;10.90;99.90
44817;DHT22;30529;53.570;9.964;2023-03-20T10:33:42;10.70;99.90
44817;DHT22;30529;53.570;9.964;2023-03-20T10:36:32;10.60;99.90
44817;DHT22;30529;53.570;9.964;2023-03-20T10:41:55;11.00;99.90
44817;DHT22;30529;53.570;9.964;2023-03-20T10:44:38;11.10;99.90
44817;DHT22;30529;53.570;9.964;2023-03-20T10:47:08;11.00;99.90
44817;DHT22;30529;53.570;9.964;2023-03-20T10:49:53;11.00;99.90
44817;DHT22;30529;53.570;9.964;2023-03-20T10:52:35;11.00;99.90
44817;DHT22;30529;53.570;9.964;2023-03-20T10:55:15;11.10;99.90
44817;DHT22;30529;53.570;9.964;2023-03-20T10:57:51;11.50;99.90
44817;DHT22;30529;53.570;9.964;2023-03-20T11:00:23;11.80;99.90
44817;DHT22;30529;53.570;9.964;2023-03-20T11:02:51;11.70;99.90
44817;DHT22;30529;53.570;9.964;2023-03-20T11:05:29;11.70;99.90
44817;DHT22;30529;53.570;9.964;2023-03-20T11:08:08;11.60;99.90
44817;DHT22;30529;53.570;9.964;2023-03-20T11:10:38;11.40;99.90
44817;DHT22;30529;53.570;9.964;2023-03-20T11:13:24;11.30;99.90
44817;DHT22;30529;53.570;9.964;2023-03-20T11:15:52;11.50;99.90
44817;DHT22;30529;53.570;9.964;2023-03-20T11:18:18;11.70;99.90
44817;DHT22;30529;53.570;9.964;2023-03-20T11:20:56;11.90;99.90
44817;DHT22;30529;53.570;9.964;2023-03-20T11:23:28;11.80;99.90
44817;DHT22;30529;53.570;9.964;2023-03-20T11:25:58;11.90;99.90
44817;DHT22;30529;53.570;9.964;2023-03-20T11:28:33;11.80;99.90
44817;DHT22;30529;53.570;9.964;2023-03-20T11:33:44;11.60;99.90
44817;DHT22;30529;53.570;9.964;2023-03-20T11:36:32;11.80;99.90
44817;DHT22;30529;53.570;9.964;2023-03-20T11:39:12;11.80;99.90
44817;DHT22;30529;53.570;9.964;2023-03-20T11:44:33;11.50;99.90
44817;DHT22;30529;53.570;9.964;2023-03-20T11:47:05;11.40;99.90
44817;DHT22;30529;53.570;9.964;2023-03-20T11:49:46;11.30;99.90
44817;DHT22;30529;53.570;9.964;2023-03-20T11:52:20;11.20;99.90
44817;DHT22;30529;53.570;9.964;2023-03-20T11:54:52;11.30;99.90
44817;DHT22;30529;53.570;9.964;2023-03-20T12:00:21;11.50;99.90
44817;DHT22;30529;53.570;9.964;2023-03-20T12:02:46;11.30;99.90
44817;DHT22;30529;53.570;9.964;2023-03-20T12:05:29;11.30;99.90
44817;DHT22;30529;53.570;9.964;2023-03-20T12:07:59;11.30;99.90
44817;DHT22;30529;53.570;9.964;2023-03-20T12:10:31;11.30;99.90
44817;DHT22;30529;53.570;9.964;2023-03-20T12:13:03;11.30;99.90
44817;DHT22;30529;53.570;9.964;2023-03-20T12:15:36;11.50;99.90
44817;DHT22;30529;53.570;9.964;2023-03-20T12:23:39;11.60;99.90
44817;DHT22;30529;53.570;9.964;2023-03-20T12:26:15;11.50;99.90
44817;DHT22;30529;53.570;9.964;2023-03-20T12:33:59;11.80;99.90
44817;DHT22;30529;53.570;9.964;2023-03-20T12:36:37;11.80;99.90
44817;DHT22;30529;53.570;9.964;2023-03-20T12:39:37;11.70;99.90
44817;DHT22;30529;53.570;9.964;2023-03-20T12:47:34;12.20;99.90
44817;DHT22;30529;53.570;9.964;2023-03-20T12:50:25;12.40;99.90
44817;DHT22;30529;53.570;9.964;2023-03-20T12:56:16;12.50;99.90
44817;DHT22;30529;53.570;9.964;2023-03-20T12:58:50;12.50;99.90
44817;DHT22;30529;53.570;9.964;2023-03-20T13:09:29;13.00;99.90
44817;DHT22;30529;53.570;9.964;2023-03-20T13:12:13;12.80;99.90
44817;DHT22;30529;53.570;9.964;2023-03-20T13:14:47;12.90;99.90
44817;DHT22;30529;53.570;9.964;2023-03-20T13:23:18;12.30;99.90
44817;DHT22;30529;53.570;9.964;2023-03-20T13:26:11;12.30;99.90
44817;DHT22;30529;53.570;9.964;2023-03-20T13:34:59;11.80;99.90
44817;DHT22;30529;53.570;9.964;2023-03-20T13:37:41;11.80;99.90
44817;DHT22;30529;53.570;9.964;2023-03-20T13:40:21;11.70;99.90
44817;DHT22;30529;53.570;9.964;2023-03-20T13:42:59;11.70;99.90
44817;DHT22;30529;53.570;9.964;2023-03-20T13:45:41;11.60;99.90
44817;DHT22;30529;53.570;9.964;2023-03-20T13:51:25;11.50;99.90
44817;DHT22;30529;53.570;9.964;2023-03-20T13:54:11;11.40;99.90
44817;DHT22;30529;53.570;9.964;2023-03-20T14:02:44;11.30;99.90
44817;DHT22;30529;53.570;9.964;2023-03-20T14:05:18;11.30;99.90
44817;DHT22;30529;53.570;9.964;2023-03-20T14:07:48;11.40;99.90
44817;DHT22;30529;53.570;9.964;2023-03-20T14:13:00;11.50;99.90
44817;DHT22;30529;53.570;9.964;2023-03-20T14:15:31;11.60;99.90
44817;DHT22;30529;53.570;9.964;2023-03-20T14:18:03;11.70;99.90
44817;DHT22;30529;53.570;9.964;2023-03-20T14:20:38;11.70;99.90
44817;DHT22;30529;53.570;9.964;2023-03-20T14:23:04;11.60;99.90
44817;DHT22;30529;53.570;9.964;2023-03-20T14:25:39;11.70;99.90
44817;DHT22;30529;53.570;9.964;2023-03-20T14:28:23;11.70;99.90
44817;DHT22;30529;53.570;9.964;2023-03-20T14:30:50;11.60;99.90
44817;DHT22;30529;53.570;9.964;2023-03-20T14:33:41;11.50;99.90
44817;DHT22;30529;53.570;9.964;2023-03-20T14:36:22;11.40;99.90
44817;DHT22;30529;53.570;9.964;2023-03-20T14:50:24;11.30;99.90
44817;DHT22;30529;53.570;9.964;2023-03-20T14:55:47;11.30;99.90
44817;DHT22;30529;53.570;9.964;2023-03-20T14:58:47;11.30;99.90
44817;DHT22;30529;53.570;9.964;2023-03-20T15:04:08;11.40;99.90
44817;DHT22;30529;53.570;9.964;2023-03-20T15:06:47;11.30;99.90
44817;DHT22;30529;53.570;9.964;2023-03-20T15:09:15;11.20;99.90
44817;DHT22;30529;53.570;9.964;2023-03-20T15:11:42;11.20;99.90
44817;DHT22;30529;53.570;9.964;2023-03-20T15:14:09;11.20;99.90
44817;DHT22;30529;53.570;9.964;2023-03-20T15:16:36;11.20;99.90
44817;DHT22;30529;53.570;9.964;2023-03-20T15:19:29;11.30;99.90
44817;DHT22;30529;53.570;9.964;2023-03-20T15:21:55;11.30;99.90
44817;DHT22;30529;53.570;9.964;2023-03-20T15:24:23;11.20;99.90
44817;DHT22;30529;53.570;9.964;2023-03-20T15:26:52;11.20;99.90
44817;DHT22;30529;53.570;9.964;2023-03-20T15:29:19;11.20;99.90
44817;DHT22;30529;53.570;9.964;2023-03-20T15:31:45;11.10;99.90
44817;DHT22;30529;53.570;9.964;2023-03-20T15:34:22;11.10;99.90
44817;DHT22;30529;53.570;9.964;2023-03-20T15:36:49;11.10;99.90
44817;DHT22;30529;53.570;9.964;2023-03-20T15:39:18;11.10;99.90
44817;DHT22;30529;53.570;9.964;2023-03-20T15:41:49;11.00;99.90
44817;DHT22;30529;53.570;9.964;2023-03-20T15:44:27;11.00;99.90
44817;DHT22;30529;53.570;9.964;2023-03-20T15:46:58;10.90;99.90
44817;DHT22;30529;53.570;9.964;2023-03-20T15:49:26;10.90;99.90
44817;DHT22;30529;53.570;9.964;2023-03-20T15:51:56;10.90;99.90
44817;DHT22;30529;53.570;9.964;2023-03-20T15:54:23;10.90;99.90
44817;DHT22;30529;53.570;9.964;2023-03-20T15:56:51;10.90;99.90
44817;DHT22;30529;53.570;9.964;2023-03-20T15:59:20;10.90;99.90
44817;DHT22;30529;53.570;9.964;2023-03-20T16:01:49;10.90;99.90
44817;DHT22;30529;53.570;9.964;2023-03-20T16:04:17;10.90;99.90
44817;DHT22;30529;53.570;9.964;2023-03-20T16:06:57;10.90;99.90
44817;DHT22;30529;53.570;9.964;2023-03-20T16:09:25;10.80;99.90
44817;DHT22;30529;53.570;9.964;2023-03-20T16:12:00;10.70;99.90
44817;DHT22;30529;53.570;9.964;2023-03-20T16:14:32;10.60;99.90
44817;DHT22;30529;53.570;9.964;2023-03-20T16:17:01;10.70;99.90
44817;DHT22;30529;53.570;9.964;2023-03-20T16:19:28;10.70;99.90
44817;DHT22;30529;53.570;9.964;2023-03-20T16:22:07;10.70;99.90
44817;DHT22;30529;53.570;9.964;2023-03-20T16:24:38;10.60;99.90
44817;DHT22;30529;53.570;9.964;2023-03-20T16:27:08;10.70;99.90
44817;DHT22;30529;53.570;9.964;2023-03-20T16:29:35;10.70;99.90
44817;DHT22;30529;53.570;9.964;2023-03-20T16:32:22;10.70;99.90
44817;DHT22;30529;53.570;9.964;2023-03-20T16:34:53;10.60;99.90
44817;DHT22;30529;53.570;9.964;2023-03-20T16:37:36;10.60;99.90
44817;DHT22;30529;53.570;9.964;2023-03-20T16:42:46;10.60;99.90
44817;DHT22;30529;53.570;9.964;2023-03-20T16:45:19;10.60;99.90
44817;DHT22;30529;53.570;9.964;2023-03-20T16:47:47;10.60;99.90
44817;DHT22;30529;53.570;9.964;2023-03-20T16:50:20;10.50;99.90
44817;DHT22;30529;53.570;9.964;2023-03-20T16:52:55;10.60;99.90
44817;DHT22;30529;53.570;9.964;2023-03-20T16:55:26;10.50;99.90
44817;DHT22;30529;53.570;9.964;2023-03-20T16:58:02;10.50;99.90
44817;DHT22;30529;53.570;9.964;2023-03-20T17:00:31;10.50;99.90
44817;DHT22;30529;53.570;9.964;2023-03-20T17:03:23;10.50;99.90
44817;DHT22;30529;53.570;9.964;2023-03-20T17:05:54;10.50;99.90
44817;DHT22;30529;53.570;9.964;2023-03-20T17:08:29;10.40;99.90
44817;DHT22;30529;53.570;9.964;2023-03-20T17:10:58;10.50;99.90
44817;DHT22;30529;53.570;9.964;2023-03-20T17:13:24;10.40;99.90
44817;DHT22;30529;53.570;9.964;2023-03-20T17:15:50;10.40;99.90
44817;DHT22;30529;53.570;9.964;2023-03-20T17:18:16;10.40;99.90
44817;DHT22;30529;53.570;9.964;2023-03-20T17:20:42;10.40;99.90
44817;DHT22;30529;53.570;9.964;2023-03-20T17:23:19;10.30;99.90
44817;DHT22;30529;53.570;9.964;2023-03-20T17:25:45;10.30;99.90
44817;DHT22;30529;53.570;9.964;2023-03-20T17:28:17;10.20;99.90
44817;DHT22;30529;53.570;9.964;2023-03-20T17:30:46;10.10;99.90
44817;DHT22;30529;53.570;9.964;2023-03-20T17:33:16;10.10;99.90
44817;DHT22;30529;53.570;9.964;2023-03-20T17:35:42;10.10;99.90
44817;DHT22;30529;53.570;9.964;2023-03-20T17:38:16;10.10;99.90
44817;DHT22;30529;53.570;9.964;2023-03-20T17:40:43;10.00;99.90
44817;DHT22;30529;53.570;9.964;2023-03-20T17:43:11;10.10;99.90
44817;DHT22;30529;53.570;9.964;2023-03-20T17:45:37;10.10;99.90
44817;DHT22;30529;53.570;9.964;2023-03-20T17:48:04;10.10;99.90
44817;DHT22;30529;53.570;9.964;2023-03-20T17:50:30;10.10;99.90
44817;DHT22;30529;53.570;9.964;2023-03-20T17:52:56;10.20;99.90
44817;DHT22;30529;53.570;9.964;2023-03-20T17:55:22;10.20;99.90
44817;DHT22;30529;53.570;9.964;2023-03-20T17:57:48;10.20;99.90
44817;DHT22;30529;53.570;9.964;2023-03-20T18:00:22;10.20;99.90